Time;durP1;ratioP1;P1;durP2;ratioP2;P2;SDS_P1;SDS_P2;PMS_P1;PMS_P2;Temp;Humidity;BMP_temperature;BMP_pressure;BME280_temperature;BME280_humidity;BME280_pressure;Samples;Min_cycle;Max_cycle;Signal;HPM_P1;HPM_P2
2022/06/14 00:00:55;;;;;;;12.63;1.80;;;11.80;99.90;;;;;;5108477;28;20082;-81
2022/06/14 00:03:30;;;;;;;5.05;1.20;;;11.60;99.90;;;;;;5090140;28;20046;-81
2022/06/14 00:05:58;;;;;;;10.18;1.88;;;11.70;99.90;;;;;;5108242;28;20519;-81
2022/06/14 00:08:25;;;;;;;11.82;1.60;;;11.70;99.90;;;;;;5107619;28;20052;-81
2022/06/14 00:10:52;;;;;;;5.60;1.02;;;11.70;99.90;;;;;;5108191;28;20079;-81
2022/06/14 00:13:18;;;;;;;9.90;1.48;;;11.70;99.90;;;;;;5107973;28;20040;-81
2022/06/14 00:15:45;;;;;;;3.90;1.23;;;11.70;99.90;;;;;;5074174;28;20493;-81
2022/06/14 00:18:15;;;;;;;7.25;1.17;;;11.40;99.90;;;;;;5091923;28;20404;-81
2022/06/14 00:20:43;;;;;;;6.97;1.42;;;11.70;99.90;;;;;;5089573;28;20401;-81
2022/06/14 00:23:09;;;;;;;9.50;1.80;;;11.80;99.90;;;;;;5107487;28;20074;-81
2022/06/14 00:25:41;;;;;;;10.88;1.83;;;11.80;99.90;;;;;;5107226;28;20051;-81
2022/06/14 00:28:11;;;;;;;6.13;1.25;;;11.80;99.90;;;;;;5107338;28;20062;-81
2022/06/14 00:30:38;;;;;;;10.15;1.95;;;11.80;99.90;;;;;;5108684;28;20050;-81
2022/06/14 00:33:04;;;;;;;8.02;1.75;;;11.90;99.90;;;;;;5107076;28;20499;-81
2022/06/14 00:35:30;;;;;;;12.10;1.55;;;11.90;99.90;;;;;;5074455;28;20053;-81
2022/06/14 00:37:56;;;;;;;7.68;1.30;;;11.90;99.90;;;;;;5072740;28;20058;-81
2022/06/14 00:40:26;;;;;;;9.90;2.10;;;11.90;99.90;;;;;;5090467;28;20188;-81
2022/06/14 00:42:52;;;;;;;13.85;1.40;;;11.90;99.90;;;;;;5107675;28;20575;-81
2022/06/14 00:45:18;;;;;;;7.53;1.55;;;11.90;99.90;;;;;;5073496;28;20075;-81
2022/06/14 00:47:46;;;;;;;9.07;1.40;;;12.00;99.90;;;;;;5090590;28;20385;-81
2022/06/14 00:50:19;;;;;;;8.52;1.23;;;12.00;99.90;;;;;;5089488;28;20049;-81
2022/06/14 00:52:51;;;;;;;12.95;1.95;;;12.00;99.90;;;;;;5107673;28;20519;-81
2022/06/14 00:55:29;;;;;;;8.68;1.95;;;12.00;99.90;;;;;;5090124;28;20035;-81
2022/06/14 00:58:05;;;;;;;4.93;2.10;;;12.00;99.90;;;;;;5106891;28;20079;-81
2022/06/14 01:00:35;;;;;;;9.55;2.10;;;12.00;99.90;;;;;;5107603;28;20039;-81
2022/06/14 01:03:09;;;;;;;13.23;2.13;;;12.00;99.90;;;;;;5106235;28;20036;-81
2022/06/14 01:08:27;;;;;;;7.78;1.70;;;11.90;99.90;;;;;;5106551;28;20105;-81
2022/06/14 01:10:53;;;;;;;8.43;1.50;;;11.80;99.90;;;;;;5106516;28;20079;-81
2022/06/14 01:13:20;;;;;;;11.13;1.77;;;11.80;99.90;;;;;;5090143;28;20144;-81
2022/06/14 01:15:50;;;;;;;7.20;1.63;;;11.80;99.90;;;;;;5106514;28;20048;-81
2022/06/14 01:18:17;;;;;;;7.70;2.15;;;12.40;99.90;;;;;;5107649;28;20086;-81
2022/06/14 01:20:43;;;;;;;10.10;1.80;;;11.70;99.90;;;;;;5105722;28;20043;-81
2022/06/14 01:23:13;;;;;;;11.20;2.15;;;11.70;99.90;;;;;;5106826;28;20043;-81
2022/06/14 01:25:44;;;;;;;9.18;1.92;;;12.20;99.90;;;;;;5106243;28;20039;-81
2022/06/14 01:28:10;;;;;;;9.32;2.40;;;11.60;99.90;;;;;;5105918;28;20055;-81
2022/06/14 01:30:43;;;;;;;9.07;2.03;;;11.60;99.90;;;;;;5107184;28;20206;-81
2022/06/14 01:33:11;;;;;;;10.60;1.75;;;11.60;99.90;;;;;;5088698;28;20047;-81
2022/06/14 01:35:40;;;;;;;11.95;2.35;;;11.80;99.90;;;;;;5107081;28;20101;-81
2022/06/14 01:38:10;;;;;;;10.20;1.98;;;12.30;99.90;;;;;;5089074;28;20497;-81
2022/06/14 01:41:11;;;;;;;7.55;1.77;;;11.50;99.90;;;;;;5106299;28;20494;-81
2022/06/14 01:43:58;;;;;;;5.93;1.83;;;11.40;99.90;;;;;;5107298;28;20416;-81
2022/06/14 01:46:54;;;;;;;8.38;2.10;;;11.40;99.90;;;;;;5105911;28;20391;-81
2022/06/14 01:52:33;;;;;;;10.40;1.88;;;11.30;99.90;;;;;;5107119;28;20482;-81
2022/06/14 01:55:17;;;;;;;8.55;1.77;;;11.30;99.90;;;;;;5105597;28;20051;-81
2022/06/14 01:57:46;;;;;;;12.38;1.70;;;11.20;99.90;;;;;;5105940;28;20093;-81
2022/06/14 02:00:24;;;;;;;10.13;1.77;;;11.20;99.90;;;;;;5106015;28;20500;-81
2022/06/14 02:04:37;;;;;;;6.35;1.77;;;11.20;99.90;;;;;;5105238;28;20048;-81
2022/06/14 02:06:27;;;;;;;9.70;2.10;;;11.20;99.90;;;;;;5106362;28;20039;-81
2022/06/14 02:09:13;;;;;;;11.70;1.88;;;11.10;99.90;;;;;;5050813;28;20423;-81
2022/06/14 02:11:39;;;;;;;10.45;1.85;;;11.10;99.90;;;;;;5105714;28;20047;-81
2022/06/14 02:14:30;;;;;;;7.60;1.38;;;11.10;99.90;;;;;;5091043;28;20050;-81
2022/06/14 02:17:07;;;;;;;10.20;2.10;;;11.10;99.90;;;;;;5109078;28;20047;-79
2022/06/14 02:19:47;;;;;;;7.25;1.98;;;11.10;99.90;;;;;;5092941;28;20051;-81
2022/06/14 02:22:25;;;;;;;14.82;2.20;;;11.10;99.90;;;;;;5092288;28;20431;-80
2022/06/14 02:25:07;;;;;;;10.85;1.50;;;11.00;99.90;;;;;;5106300;28;20040;-80
2022/06/14 02:27:42;;;;;;;14.02;2.30;;;11.00;99.90;;;;;;5108229;28;20044;-81
2022/06/14 02:30:13;;;;;;;10.15;1.85;;;11.00;99.90;;;;;;5091206;28;20043;-80
2022/06/14 02:32:48;;;;;;;12.68;2.03;;;11.00;99.90;;;;;;5107212;28;20048;-80
2022/06/14 02:35:24;;;;;;;10.57;2.13;;;11.00;99.90;;;;;;5108644;28;20043;-81
2022/06/14 02:38:08;;;;;;;10.18;1.48;;;11.00;99.90;;;;;;5106648;28;20056;-80
2022/06/14 02:40:52;;;;;;;12.65;1.95;;;11.00;99.90;;;;;;5107749;28;20048;-81
2022/06/14 02:43:26;;;;;;;6.68;1.80;;;11.00;99.90;;;;;;5091695;28;20040;-81
2022/06/14 02:46:11;;;;;;;7.00;1.40;;;11.00;99.90;;;;;;5093793;28;20048;-81
2022/06/14 02:48:57;;;;;;;5.68;1.45;;;11.00;99.90;;;;;;5095115;28;20496;-81
2022/06/14 02:51:58;;;;;;;5.30;2.40;;;11.10;99.90;;;;;;5110759;28;20073;-81
2022/06/14 02:54:35;;;;;;;4.03;1.27;;;11.00;99.90;;;;;;5105945;28;20059;-81
2022/06/14 02:57:09;;;;;;;8.02;1.63;;;10.90;99.90;;;;;;5112414;28;20361;-80
2022/06/14 03:00:13;;;;;;;11.15;1.92;;;11.00;99.90;;;;;;5094503;28;20044;-81
2022/06/14 03:02:43;;;;;;;8.00;1.63;;;11.00;99.90;;;;;;5110097;28;20574;-81
2022/06/14 03:05:32;;;;;;;18.40;2.13;;;11.00;99.90;;;;;;5093783;28;20122;-81
2022/06/14 03:08:10;;;;;;;7.40;2.05;;;10.90;99.90;;;;;;5109466;28;20087;-81
2022/06/14 03:10:52;;;;;;;8.85;1.77;;;10.90;99.90;;;;;;5110293;28;20094;-81
2022/06/14 03:13:22;;;;;;;8.95;1.88;;;10.90;99.90;;;;;;5093290;28;20043;-81
2022/06/14 03:15:55;;;;;;;10.07;1.65;;;10.90;99.90;;;;;;5092844;28;20525;-81
2022/06/14 03:18:34;;;;;;;10.30;1.98;;;10.90;99.90;;;;;;5111996;28;20046;-81
2022/06/14 03:21:37;;;;;;;15.52;2.22;;;10.90;99.90;;;;;;5109160;28;20561;-81
2022/06/14 03:24:30;;;;;;;9.23;2.03;;;11.00;99.90;;;;;;5027672;28;20136;-79
2022/06/14 03:27:18;;;;;;;5.13;1.67;;;10.90;99.90;;;;;;5110299;28;20546;-80
2022/06/14 03:29:51;;;;;;;10.65;1.80;;;11.00;99.90;;;;;;5109321;28;20047;-80
2022/06/14 03:32:45;;;;;;;7.20;1.90;;;11.00;99.90;;;;;;5111127;27;20052;-80
2022/06/14 03:35:26;;;;;;;9.48;1.70;;;11.00;99.90;;;;;;5110398;28;20035;-81
2022/06/14 03:37:53;;;;;;;11.45;3.03;;;11.00;99.90;;;;;;5108612;28;20427;-78
2022/06/14 03:40:23;;;;;;;9.88;1.90;;;11.10;99.90;;;;;;5109710;28;20058;-80
2022/06/14 03:42:49;;;;;;;10.13;2.55;;;11.10;99.90;;;;;;5108994;28;20100;-80
2022/06/14 03:45:23;;;;;;;6.65;1.88;;;11.10;99.90;;;;;;5110933;28;20440;-81
2022/06/14 03:47:48;;;;;;;10.23;2.05;;;11.10;99.90;;;;;;5112224;28;20051;-81
2022/06/14 03:50:45;;;;;;;15.35;1.95;;;11.10;99.90;;;;;;5094079;28;20101;-80
2022/06/14 03:53:43;;;;;;;10.73;3.00;;;11.20;99.90;;;;;;5060420;28;20059;-81
2022/06/14 03:56:18;;;;;;;10.63;2.10;;;11.20;99.90;;;;;;5094557;28;20504;-80
2022/06/14 03:59:19;;;;;;;11.80;3.05;;;11.20;99.90;;;;;;5093920;28;20051;-81
2022/06/14 04:01:58;;;;;;;6.60;1.73;;;11.20;99.90;;;;;;5111584;28;20079;-80
2022/06/14 04:04:41;;;;;;;11.63;2.25;;;11.20;99.90;;;;;;5111846;28;20047;-79
2022/06/14 04:07:07;;;;;;;6.40;1.85;;;11.20;99.90;;;;;;5110774;28;20087;-80
2022/06/14 04:09:52;;;;;;;8.57;2.45;;;11.30;99.90;;;;;;5111259;28;20055;-80
2022/06/14 04:12:47;;;;;;;11.85;1.77;;;11.10;99.90;;;;;;5093220;28;20097;-80
2022/06/14 04:15:21;;;;;;;9.55;1.80;;;11.30;99.90;;;;;;5112267;28;20054;-80
2022/06/14 04:17:53;;;;;;;2.97;1.25;;;11.30;99.90;;;;;;5111457;28;20134;-79
2022/06/14 04:20:42;;;;;;;4.18;1.27;;;11.40;99.90;;;;;;5111203;28;20050;-80
2022/06/14 04:23:18;;;;;;;8.27;1.63;;;11.40;99.90;;;;;;5112380;28;20083;-80
2022/06/14 04:26:04;;;;;;;7.68;2.08;;;11.90;99.90;;;;;;5111767;28;20043;-80
2022/06/14 04:28:48;;;;;;;9.25;1.63;;;11.50;99.90;;;;;;5109977;28;20495;-79
2022/06/14 04:31:22;;;;;;;6.68;1.48;;;11.60;99.90;;;;;;5111632;28;20055;-81
2022/06/14 04:34:27;;;;;;;9.90;1.70;;;11.60;99.90;;;;;;5110021;28;20058;-80
2022/06/14 04:37:15;;;;;;;10.93;1.90;;;11.70;99.90;;;;;;5089695;28;20051;-80
2022/06/14 04:39:46;;;;;;;6.03;1.73;;;11.80;99.90;;;;;;5111851;28;20574;-84
2022/06/14 04:42:41;;;;;;;10.98;1.80;;;11.80;99.90;;;;;;5094067;28;20063;-81
2022/06/14 04:45:17;;;;;;;6.60;1.95;;;11.90;99.90;;;;;;5108588;28;20113;-83
2022/06/14 04:47:51;;;;;;;8.00;1.75;;;12.00;99.90;;;;;;5112389;28;20047;-83
2022/06/14 04:50:31;;;;;;;6.13;1.33;;;12.00;99.90;;;;;;5092991;28;20058;-81
2022/06/14 04:53:02;;;;;;;8.07;1.50;;;12.10;99.90;;;;;;5110993;28;20039;-81
2022/06/14 04:56:04;;;;;;;12.68;2.22;;;12.20;99.90;;;;;;5110910;28;20097;-81
2022/06/14 04:58:54;;;;;;;9.73;2.00;;;12.40;99.90;;;;;;5101877;28;20074;-82
2022/06/14 05:01:27;;;;;;;6.25;1.52;;;12.50;99.90;;;;;;5108188;28;20059;-82
2022/06/14 05:04:00;;;;;;;6.75;1.25;;;12.60;99.90;;;;;;5089990;28;20104;-81
2022/06/14 05:06:32;;;;;;;;;;;12.70;99.90;;;;;;5090324;28;20430;-80
2022/06/14 05:09:10;;;;;;;7.43;2.33;;;12.70;99.90;;;;;;5107278;28;19986;-80
2022/06/14 05:12:04;;;;;;;7.88;2.20;;;12.80;99.90;;;;;;5106318;28;20112;-79
2022/06/14 05:14:36;;;;;;;10.73;1.73;;;12.90;99.90;;;;;;5100339;28;20055;-81
2022/06/14 05:17:25;;;;;;;8.60;1.98;;;13.00;99.90;;;;;;5089594;28;20036;-80
2022/06/14 05:20:16;;;;;;;8.93;1.73;;;13.00;99.90;;;;;;5089053;28;20470;-80
2022/06/14 05:23:11;;;;;;;5.88;1.45;;;13.10;99.90;;;;;;5107401;28;20041;-85
2022/06/14 05:25:57;;;;;;;7.10;1.88;;;13.10;99.90;;;;;;5093005;28;20066;-81
2022/06/14 05:28:51;;;;;;;10.70;1.65;;;13.20;99.90;;;;;;5090030;28;20047;-81
2022/06/14 05:31:35;;;;;;;5.50;1.75;;;13.30;99.90;;;;;;5039991;28;20112;-81
2022/06/14 05:34:05;;;;;;;9.38;1.63;;;13.30;99.90;;;;;;5108137;28;20062;-81
2022/06/14 05:36:37;;;;;;;7.65;1.48;;;13.40;99.90;;;;;;5106824;28;20082;-83
2022/06/14 05:39:21;;;;;;;6.32;1.38;;;13.50;99.90;;;;;;5073265;28;20109;-83
2022/06/14 05:41:55;;;;;;;3.97;1.20;;;13.60;99.90;;;;;;5105238;28;20120;-83
2022/06/14 05:44:29;;;;;;;8.45;2.17;;;13.70;99.90;;;;;;5089756;28;20471;-83
2022/06/14 05:46:58;;;;;;;6.68;1.90;;;13.80;99.90;;;;;;5105475;28;20292;-83
2022/06/14 05:49:36;;;;;;;5.20;1.23;;;14.60;99.90;;;;;;5107250;28;20044;-82
2022/06/14 05:52:09;;;;;;;4.40;1.17;;;13.90;99.90;;;;;;5106806;28;20192;-83
2022/06/14 05:54:42;;;;;;;8.65;1.33;;;14.00;99.90;;;;;;5105772;28;20114;-82
2022/06/14 05:57:36;;;;;;;6.32;1.58;;;14.10;99.90;;;;;;5107698;28;20055;-83
2022/06/14 06:00:10;;;;;;;;;;;14.20;99.90;;;;;;5107058;28;20377;-81
2022/06/14 06:02:47;;;;;;;2.70;0.95;;;14.10;99.90;;;;;;5089094;28;19919;-81
2022/06/14 06:05:30;;;;;;;6.18;1.42;;;14.20;99.90;;;;;;5090034;28;20044;-82
2022/06/14 06:08:18;;;;;;;6.43;1.35;;;14.20;99.90;;;;;;5088408;28;20492;-82
2022/06/14 06:10:48;;;;;;;6.47;1.75;;;14.20;99.90;;;;;;5106418;28;20047;-82
2022/06/14 06:13:27;;;;;;;7.35;1.30;;;14.30;99.90;;;;;;5089732;28;20084;-81
2022/06/14 06:15:57;;;;;;;6.35;1.52;;;14.30;99.90;;;;;;5105897;28;20044;-82
2022/06/14 06:18:35;;;;;;;3.25;1.50;;;14.40;99.90;;;;;;5107694;28;20104;-83
2022/06/14 06:21:15;;;;;;;5.65;1.48;;;14.60;99.90;;;;;;5109768;28;20050;-82
2022/06/14 06:24:10;;;;;;;5.15;1.45;;;14.60;99.90;;;;;;5110876;28;20454;-82
2022/06/14 06:26:41;;;;;;;9.30;1.75;;;14.70;99.90;;;;;;5084333;28;20082;-83
2022/06/14 06:29:34;;;;;;;6.35;1.17;;;14.90;99.90;;;;;;5109193;28;20051;-82
2022/06/14 06:32:01;;;;;;;5.63;1.25;;;15.10;99.90;;;;;;5110311;28;20052;-83
2022/06/14 06:34:27;;;;;;;10.63;1.45;;;15.10;99.90;;;;;;5110936;28;20481;-82
2022/06/14 06:37:01;;;;;;;13.02;1.50;;;15.20;99.90;;;;;;5093293;28;20043;-83
2022/06/14 06:39:52;;;;;;;9.73;1.90;;;15.80;99.90;;;;;;5110897;28;20096;-82
2022/06/14 06:42:32;;;;;;;7.80;1.20;;;15.40;99.90;;;;;;5109969;28;20342;-82
2022/06/14 06:45:07;;;;;;;9.48;1.98;;;15.60;99.90;;;;;;5110227;28;20051;-82
2022/06/14 06:47:58;;;;;;;7.60;1.10;;;15.70;99.90;;;;;;5110625;28;20036;-83
2022/06/14 06:50:32;;;;;;;6.07;1.15;;;15.80;99.90;;;;;;5093077;28;20496;-82
2022/06/14 06:53:15;;;;;;;6.35;1.38;;;15.90;99.90;;;;;;5093957;28;20040;-82
2022/06/14 06:55:59;;;;;;;;;;;16.00;99.90;;;;;;5102658;28;20480;-82
2022/06/14 06:58:51;;;;;;;3.38;0.95;;;16.10;99.90;;;;;;5120911;28;20288;-81
2022/06/14 07:01:25;;;;;;;5.32;1.77;;;16.20;99.90;;;;;;5102176;28;20051;-82
2022/06/14 07:04:03;;;;;;;7.40;0.88;;;16.30;99.90;;;;;;5117309;28;20039;-82
2022/06/14 07:06:38;;;;;;;6.97;1.17;;;16.40;99.90;;;;;;5101859;28;20043;-82
2022/06/14 07:09:36;;;;;;;4.47;0.98;;;16.50;99.90;;;;;;5100930;28;20051;-82
2022/06/14 07:12:08;;;;;;;1.90;0.95;;;16.70;99.90;;;;;;5117888;28;20089;-82
2022/06/14 07:15:11;;;;;;;7.00;0.90;;;16.70;99.90;;;;;;5094018;28;20047;-82
2022/06/14 07:17:40;;;;;;;;;;;16.90;99.90;;;;;;5079539;28;20123;-83
2022/06/14 07:20:33;;;;;;;5.93;0.95;;;17.00;99.90;;;;;;5109104;28;19920;-82
2022/06/14 07:23:14;;;;;;;4.13;0.82;;;17.10;99.90;;;;;;5099258;28;20143;-82
2022/06/14 07:25:53;;;;;;;4.85;0.68;;;17.20;99.90;;;;;;5091665;28;20047;-83
2022/06/14 07:28:32;;;;;;;5.13;1.15;;;17.20;99.90;;;;;;5108713;28;20043;-83
2022/06/14 07:31:04;;;;;;;3.10;0.60;;;17.40;99.90;;;;;;5092286;28;20043;-82
2022/06/14 07:33:30;;;;;;;3.30;0.90;;;17.50;99.90;;;;;;5092063;28;20047;-83
2022/06/14 07:36:06;;;;;;;4.43;0.82;;;17.60;99.90;;;;;;5092725;28;20047;-83
2022/06/14 07:38:47;;;;;;;6.72;0.93;;;17.70;99.90;;;;;;5108508;28;20051;-83
2022/06/14 07:41:14;;;;;;;4.13;0.75;;;17.80;99.90;;;;;;5091471;28;20090;-82
2022/06/14 07:43:54;;;;;;;6.82;0.93;;;17.90;99.90;;;;;;5093419;28;20035;-83
2022/06/14 07:46:46;;;;;;;2.65;1.20;;;17.90;99.90;;;;;;5093881;28;20040;-82
2022/06/14 07:49:22;;;;;;;5.18;0.88;;;18.10;99.90;;;;;;5095013;28;20135;-83
2022/06/14 07:51:56;;;;;;;5.63;1.25;;;18.20;99.90;;;;;;5113335;28;20520;-84
2022/06/14 07:54:47;;;;;;;3.38;1.30;;;18.20;99.90;;;;;;5112333;28;20047;-83
2022/06/14 07:57:21;;;;;;;6.10;0.95;;;18.20;99.90;;;;;;5112014;28;20047;-83
2022/06/14 07:59:55;;;;;;;3.38;0.90;;;18.40;99.90;;;;;;5110902;28;20036;-84
2022/06/14 08:02:35;;;;;;;5.75;0.90;;;17.90;99.90;;;;;;5095102;28;20052;-84
2022/06/14 08:05:12;;;;;;;3.63;0.70;;;18.70;99.90;;;;;;5095094;28;20062;-81
2022/06/14 08:07:40;;;;;;;3.13;0.52;;;18.70;99.90;;;;;;5093632;28;20500;-82
2022/06/14 08:10:22;;;;;;;2.83;0.90;;;18.70;99.90;;;;;;5095286;28;20040;-83
2022/06/14 08:13:07;;;;;;;3.05;0.60;;;18.30;99.90;;;;;;5111080;28;20126;-82
2022/06/14 08:15:47;;;;;;;5.75;0.85;;;18.80;99.90;;;;;;5110947;28;20577;-83
2022/06/14 08:18:19;;;;;;;4.22;0.68;;;18.90;99.90;;;;;;5114101;28;20043;-83
2022/06/14 08:20:46;;;;;;;2.70;0.70;;;18.90;99.90;;;;;;5109056;28;20496;-82
2022/06/14 08:23:38;;;;;;;2.72;0.75;;;19.00;99.90;;;;;;5110885;28;20050;-83
2022/06/14 08:26:35;;;;;;;1.98;0.93;;;19.20;99.70;;;;;;5111023;28;20042;-82
2022/06/14 08:29:22;;;;;;;4.47;0.90;;;19.30;98.90;;;;;;5102235;28;20056;-82
2022/06/14 08:32:29;;;;;;;2.90;0.77;;;19.30;98.90;;;;;;5095057;28;20100;-81
2022/06/14 08:35:03;;;;;;;2.72;0.73;;;19.10;98.60;;;;;;5072608;28;20104;-82
2022/06/14 08:37:57;;;;;;;2.17;0.65;;;19.10;99.90;;;;;;5094416;28;20127;-82
2022/06/14 08:40:46;;;;;;;5.05;1.05;;;19.20;99.70;;;;;;5051591;28;20056;-82
2022/06/14 08:43:32;;;;;;;3.33;1.05;;;19.40;99.80;;;;;;5108623;28;20082;-84
2022/06/14 08:46:03;;;;;;;;;;;19.60;98.40;;;;;;5110265;28;20115;-83
2022/06/14 08:48:47;;;;;;;2.53;0.55;;;19.60;96.10;;;;;;5109140;28;19946;-83
2022/06/14 08:51:33;;;;;;;1.83;0.50;;;19.50;99.70;;;;;;5091137;28;20040;-83
2022/06/14 08:54:17;;;;;;;1.38;0.55;;;19.40;97.60;;;;;;5108074;28;20051;-83
2022/06/14 08:57:21;;;;;;;3.25;0.57;;;19.40;97.00;;;;;;5108630;28;20047;-83
2022/06/14 09:00:08;;;;;;;5.53;0.50;;;19.40;97.10;;;;;;5093414;28;20054;-82
2022/06/14 09:03:11;;;;;;;3.03;0.68;;;19.70;97.10;;;;;;5111778;28;20139;-83
2022/06/14 09:06:03;;;;;;;3.05;0.57;;;20.00;95.90;;;;;;5112654;28;20050;-84
2022/06/14 09:09:03;;;;;;;3.13;0.53;;;20.00;93.60;;;;;;5093589;28;20051;-83
2022/06/14 09:12:23;;;;;;;1.48;0.40;;;19.90;93.10;;;;;;5043976;28;20297;-83
2022/06/14 09:15:06;;;;;;;3.42;0.63;;;19.70;94.50;;;;;;4998738;28;20103;-84
2022/06/14 09:17:51;;;;;;;;;;;19.50;95.10;;;;;;5089674;28;20458;-84
2022/06/14 09:20:49;;;;;;;1.70;0.47;;;19.50;93.80;;;;;;5094117;28;20423;-83
2022/06/14 09:23:18;;;;;;;2.60;0.68;;;19.80;96.00;;;;;;5093811;28;20043;-83
2022/06/14 09:26:02;;;;;;;2.38;0.85;;;20.10;96.30;;;;;;5092824;28;20035;-82
2022/06/14 09:29:09;;;;;;;3.63;0.57;;;20.40;93.80;;;;;;5106933;28;20524;-84
2022/06/14 09:32:00;;;;;;;4.10;0.70;;;20.60;91.60;;;;;;5063070;28;20060;-84
2022/06/14 09:34:44;;;;;;;1.60;0.60;;;20.60;92.50;;;;;;5106624;28;20051;-84
2022/06/14 09:37:16;;;;;;;1.02;0.40;;;20.50;92.80;;;;;;5106550;28;20482;-84
2022/06/14 09:40:33;;;;;;;3.88;0.38;;;20.30;92.00;;;;;;5089885;28;20058;-84
2022/06/14 09:43:27;;;;;;;3.67;0.70;;;20.10;91.40;;;;;;5063569;28;20043;-84
2022/06/14 09:46:42;;;;;;;1.60;0.40;;;19.90;91.00;;;;;;5088970;28;20050;-83
2022/06/14 09:49:13;;;;;;;1.55;0.40;;;19.90;92.90;;;;;;5085231;28;20056;-84
2022/06/14 09:51:42;;;;;;;3.55;0.50;;;19.80;94.20;;;;;;5106221;28;20103;-84
2022/06/14 09:54:17;;;;;;;1.83;0.70;;;19.90;93.70;;;;;;5088955;28;20048;-83
2022/06/14 09:56:59;;;;;;;3.25;0.90;;;20.00;92.60;;;;;;5090549;28;20047;-84
2022/06/14 09:59:53;;;;;;;2.13;0.80;;;20.10;92.60;;;;;;5105972;28;20509;-84
2022/06/14 10:02:54;;;;;;;1.52;0.40;;;20.00;93.00;;;;;;5089494;28;20097;-84
2022/06/14 10:05:41;;;;;;;0.93;0.47;;;20.00;93.30;;;;;;5008448;28;20100;-84
2022/06/14 10:08:10;;;;;;;2.03;0.60;;;20.00;92.70;;;;;;5098945;28;20082;-84
2022/06/14 10:10:51;;;;;;;4.13;1.08;;;19.90;93.10;;;;;;5106533;28;20079;-84
2022/06/14 10:13:41;;;;;;;5.82;0.70;;;19.80;93.30;;;;;;5106579;28;20074;-84
2022/06/14 10:16:22;;;;;;;4.25;0.88;;;19.60;94.00;;;;;;5088575;28;20377;-83
2022/06/14 10:19:15;;;;;;;4.65;0.95;;;19.50;94.80;;;;;;5106274;28;20054;-84
2022/06/14 10:22:03;;;;;;;5.90;0.90;;;19.30;95.50;;;;;;5105917;28;20566;-84
2022/06/14 10:24:58;;;;;;;1.55;0.55;;;19.20;96.50;;;;;;5105053;28;20509;-83
2022/06/14 10:30:45;;;;;;;2.70;0.82;;;19.00;97.00;;;;;;5105974;28;20055;-85
2022/06/14 10:33:22;;;;;;;3.45;0.80;;;19.00;97.80;;;;;;5105045;28;20043;-83
2022/06/14 10:36:19;;;;;;;1.52;0.43;;;19.00;97.50;;;;;;5106348;28;20040;-83
2022/06/14 10:39:08;;;;;;;1.15;0.52;;;18.90;96.70;;;;;;5105466;28;20059;-83
2022/06/14 10:42:01;;;;;;;2.30;0.45;;;18.90;97.10;;;;;;5105069;28;20048;-83
2022/06/14 10:44:37;;;;;;;1.90;0.50;;;18.80;97.20;;;;;;5089716;28;20097;-83
2022/06/14 10:47:25;;;;;;;2.33;0.50;;;18.80;97.20;;;;;;5105540;28;20051;-83
2022/06/14 10:50:05;;;;;;;4.45;1.05;;;18.80;97.70;;;;;;5105689;28;20098;-83
2022/06/14 10:52:56;;;;;;;2.50;0.82;;;18.80;98.00;;;;;;5089699;28;20044;-84
2022/06/14 10:55:38;;;;;;;4.22;1.10;;;18.70;98.20;;;;;;5105719;28;20136;-83
2022/06/14 10:58:38;;;;;;;4.68;1.20;;;18.70;98.90;;;;;;5106065;28;20051;-83
2022/06/14 11:01:15;;;;;;;4.35;1.40;;;18.60;99.80;;;;;;5106093;28;20179;-83
2022/06/14 11:03:59;;;;;;;7.80;1.27;;;18.40;99.90;;;;;;5104962;28;20440;-83
2022/06/14 11:06:55;;;;;;;3.72;1.17;;;18.30;99.90;;;;;;5109265;28;20088;-83
2022/06/14 11:09:51;;;;;;;6.13;1.67;;;18.20;99.90;;;;;;5093266;28;20051;-83
2022/06/14 11:12:32;;;;;;;6.82;1.25;;;18.30;99.90;;;;;;5058115;28;20120;-83
2022/06/14 11:15:30;;;;;;;4.07;1.20;;;18.30;99.90;;;;;;5092197;28;20481;-83
2022/06/14 11:18:14;;;;;;;4.68;1.35;;;18.40;99.90;;;;;;5102722;28;20538;-83
2022/06/14 11:20:43;;;;;;;4.28;1.23;;;18.40;99.90;;;;;;5108325;28;20071;-83
2022/06/14 11:23:53;;;;;;;6.18;1.38;;;18.50;99.90;;;;;;5109433;28;20606;-83
2022/06/14 11:26:43;;;;;;;5.18;1.33;;;18.60;99.90;;;;;;5071023;28;20059;-83
2022/06/14 11:29:14;;;;;;;4.75;1.42;;;18.70;99.90;;;;;;5091385;28;20236;-83
2022/06/14 11:31:46;;;;;;;2.80;1.27;;;18.80;99.90;;;;;;5093363;28;20126;-84
2022/06/14 11:34:31;;;;;;;2.65;1.00;;;18.80;99.90;;;;;;5108975;28;20039;-83
2022/06/14 11:37:13;;;;;;;3.03;1.05;;;18.90;99.90;;;;;;5094017;28;20044;-84
2022/06/14 11:39:48;;;;;;;7.10;1.30;;;19.10;99.90;;;;;;5111537;28;20083;-82
2022/06/14 11:42:22;;;;;;;7.15;1.40;;;19.20;99.90;;;;;;5091737;28;20069;-83
2022/06/14 11:45:02;;;;;;;11.48;1.33;;;19.30;99.90;;;;;;5108990;28;20126;-83
2022/06/14 11:48:12;;;;;;;3.75;1.10;;;19.50;99.90;;;;;;5092026;28;20398;-83
2022/06/14 11:51:01;;;;;;;2.42;0.95;;;19.70;99.90;;;;;;5029654;28;20443;-83
2022/06/14 11:53:45;;;;;;;2.97;0.95;;;19.90;99.90;;;;;;5108748;28;20052;-83
2022/06/14 11:56:28;;;;;;;6.65;1.30;;;20.10;99.90;;;;;;5108666;28;20043;-83
2022/06/14 11:59:24;;;;;;;2.38;0.70;;;20.30;99.30;;;;;;5091110;28;20070;-83
2022/06/14 12:01:59;;;;;;;2.00;0.85;;;20.40;98.30;;;;;;5108714;28;20182;-83
2022/06/14 12:04:43;;;;;;;3.53;0.80;;;20.50;97.70;;;;;;5091217;28;20040;-83
2022/06/14 12:07:37;;;;;;;2.45;0.75;;;20.60;95.80;;;;;;5107949;28;20040;-83
2022/06/14 12:10:49;;;;;;;3.88;0.95;;;20.70;95.50;;;;;;5105191;28;20113;-83
2022/06/14 12:13:14;;;;;;;4.50;1.00;;;20.90;96.00;;;;;;5070025;28;20048;-83
2022/06/14 12:15:58;;;;;;;5.38;0.90;;;21.00;95.80;;;;;;5089867;28;20054;-83
2022/06/14 12:18:29;;;;;;;2.97;0.70;;;21.10;94.20;;;;;;5091733;28;20460;-83
2022/06/14 12:21:09;;;;;;;4.63;1.00;;;21.30;94.20;;;;;;5107137;28;20080;-84
2022/06/14 12:23:41;;;;;;;2.55;1.00;;;21.30;93.00;;;;;;5108326;28;20047;-83
2022/06/14 12:26:38;;;;;;;3.40;0.90;;;21.40;93.10;;;;;;5091433;28;20140;-84
2022/06/14 12:29:27;;;;;;;3.70;0.88;;;21.60;92.80;;;;;;5106967;28;20047;-83
2022/06/14 12:32:16;;;;;;;3.38;0.80;;;21.70;92.20;;;;;;5108018;28;20585;-83
2022/06/14 12:34:59;;;;;;;3.25;0.93;;;21.80;91.50;;;;;;5107917;28;20051;-83
2022/06/14 12:37:34;;;;;;;2.17;0.70;;;21.90;90.80;;;;;;5089909;28;20086;-83
2022/06/14 12:40:25;;;;;;;1.85;0.68;;;21.80;91.30;;;;;;5091235;28;20063;-83
2022/06/14 12:43:18;;;;;;;2.20;0.85;;;21.80;87.20;;;;;;5090563;28;20127;-83
2022/06/14 12:45:53;;;;;;;2.53;0.80;;;21.70;86.50;;;;;;5107259;28;20054;-83
2022/06/14 12:48:46;;;;;;;4.25;1.00;;;21.70;85.50;;;;;;5107987;28;20079;-83
2022/06/14 12:51:25;;;;;;;1.98;0.85;;;21.60;86.10;;;;;;5106998;28;20043;-83
2022/06/14 12:53:54;;;;;;;3.20;0.80;;;21.70;88.80;;;;;;5090239;28;20071;-83
2022/06/14 12:56:42;;;;;;;3.95;0.80;;;21.80;87.00;;;;;;5107699;28;20048;-82
2022/06/14 12:59:33;;;;;;;2.55;0.80;;;21.90;84.50;;;;;;5089679;28;20122;-81
2022/06/14 13:02:12;;;;;;;1.50;0.60;;;22.20;82.30;;;;;;5107531;28;20131;-81
2022/06/14 13:04:46;;;;;;;2.33;0.73;;;22.30;82.70;;;;;;5107683;28;20066;-81
2022/06/14 13:07:30;;;;;;;5.07;0.90;;;22.40;81.20;;;;;;5107037;28;20039;-81
2022/06/14 13:10:17;;;;;;;4.00;0.95;;;22.40;76.70;;;;;;5107675;28;20130;-81
2022/06/14 13:12:49;;;;;;;1.25;0.40;;;22.30;73.90;;;;;;5107616;28;20047;-81
2022/06/14 13:15:34;;;;;;;4.15;0.82;;;22.20;74.40;;;;;;5107042;28;20104;-81
2022/06/14 13:18:22;;;;;;;2.63;0.70;;;22.00;74.00;;;;;;5109122;28;20067;-81
2022/06/14 13:20:57;;;;;;;4.43;0.52;;;21.90;76.30;;;;;;5090537;28;20043;-81
2022/06/14 13:23:53;;;;;;;7.55;1.00;;;21.90;78.40;;;;;;5110168;28;20058;-85
2022/06/14 13:26:57;;;;;;;7.90;1.10;;;21.80;79.80;;;;;;5108985;28;20100;-80
2022/06/14 13:29:38;;;;;;;3.83;0.77;;;21.60;83.40;;;;;;5008381;28;20057;-81
2022/06/14 13:32:25;;;;;;;3.75;1.15;;;21.30;85.30;;;;;;5100171;28;20079;-80
2022/06/14 13:35:03;;;;;;;2.42;0.80;;;21.00;87.80;;;;;;5108295;28;20055;-81
2022/06/14 13:38:04;;;;;;;3.58;1.00;;;20.80;90.70;;;;;;5107525;28;20086;-81
2022/06/14 13:40:42;;;;;;;2.47;0.80;;;20.70;91.60;;;;;;5053389;28;20109;-81
2022/06/14 13:43:52;;;;;;;4.53;0.85;;;20.60;92.50;;;;;;5109324;28;20047;-80
2022/06/14 13:46:30;;;;;;;3.47;0.80;;;20.70;91.80;;;;;;5090359;28;20051;-80
2022/06/14 13:49:35;;;;;;;3.50;0.77;;;20.60;92.00;;;;;;5091882;28;20051;-80
2022/06/14 13:52:19;;;;;;;2.60;0.63;;;20.60;92.40;;;;;;5009180;28;20049;-80
2022/06/14 13:55:07;;;;;;;2.78;0.65;;;20.80;91.90;;;;;;5009822;28;20080;-76
2022/06/14 13:57:55;;;;;;;2.22;0.70;;;20.90;92.10;;;;;;5082849;28;20066;-79
2022/06/14 14:00:29;;;;;;;2.90;1.02;;;21.00;91.50;;;;;;5060773;28;20565;-80
2022/06/14 14:03:39;;;;;;;3.75;0.90;;;21.00;90.50;;;;;;5106720;28;20118;-80
2022/06/14 14:06:16;;;;;;;2.13;0.73;;;21.10;88.40;;;;;;5106293;28;20047;-80
2022/06/14 14:09:15;;;;;;;2.22;0.73;;;21.10;89.10;;;;;;5105815;28;20510;-80